KMKG

Muskegon County Airport

Muskegon, Michigan, USA
KMKG 192350Z 2000/2024 22018G28KT P6SM -DZ OVC015 FM200300 26016G26KT P6SM BKN030 FM200400 27013G23KT P6SM SCT040 FM200900 29011KT P6SM SCT040 FM201400 30012G22KT P6SM VCSH BKN035 FM201800 32017G27KT 6SM -SHRA OVC035
Issued Valid From Valid To
Oct-19 @ 23:50 UTC
(3 hours ago)
Oct-20 @ 00:00 UTC
(3 hours ago)
Oct-21 @ 00:00 UTC
(in 21 hours)
Oct-20 @ 00:00 to Oct-20 @ 03:00
KMKG 192350Z 2000/2024 22018G28KT P6SM -DZ OVC015
Wind Visibility Clouds Conditions
220° at 18 knots
 Gusting to 28 knots
Greater than 6 miles
  • Overcast at 1,500' AGL
  • Light Drizzle
From Oct-20 @ 03:00 to Oct-20 @ 04:00
FM200300 26016G26KT P6SM BKN030
Wind Visibility Clouds
260° at 16 knots
 Gusting to 26 knots
Greater than 6 miles
  • Broken at 3,000' AGL
From Oct-20 @ 04:00 to Oct-20 @ 09:00
FM200400 27013G23KT P6SM SCT040
Wind Visibility Clouds
270° at 13 knots
 Gusting to 23 knots
Greater than 6 miles
  • Scattered at 4,000' AGL
From Oct-20 @ 09:00 to Oct-20 @ 14:00
FM200900 29011KT P6SM SCT040
Wind Visibility Clouds
290° at 11 knots Greater than 6 miles
  • Scattered at 4,000' AGL
From Oct-20 @ 14:00 to Oct-20 @ 18:00
FM201400 30012G22KT P6SM VCSH BKN035
Wind Visibility Clouds
300° at 12 knots
 Gusting to 22 knots
Greater than 6 miles
  • Broken at 3,500' AGL
From Oct-20 @ 18:00 to Oct-21 @ 00:00
FM201800 32017G27KT 6SM -SHRA OVC035
Wind Visibility Clouds Conditions
320° at 17 knots
 Gusting to 27 knots
6 miles
  • Overcast at 3,500' AGL
  • Light Rain
KMKG 192350Z 2000/2024 22018G28KT P6SM -DZ OVC015 FM200300 26016G26KT P6SM BKN030 FM200400 27013G23KT P6SM SCT040 FM200900 29011KT P6SM SCT040 FM201400 30012G22KT P6SM VCSH BKN035 FM201800 32017G27KT 6SM -SHRA OVC035
Issued Oct-19 @ 23:50 UTC
(3 hours ago)
Valid From Oct-20 @ 00:00 UTC
(3 hours ago)
Valid To Oct-21 @ 00:00 UTC
(in 21 hours)
Oct-20 @ 00:00 - Oct-20 @ 03:00
Wind Visibility
220° at 18 knots
 Gusting to 28 knots
Greater than 6 miles
Clouds
  • Overcast at 1,500' AGL
Conditions
  • Light Drizzle
From Oct-20 @ 03:00 - Oct-20 @ 04:00
Wind Visibility
260° at 16 knots
 Gusting to 26 knots
Greater than 6 miles
Clouds
  • Broken at 3,000' AGL
From Oct-20 @ 04:00 - Oct-20 @ 09:00
Wind Visibility
270° at 13 knots
 Gusting to 23 knots
Greater than 6 miles
Clouds
  • Scattered at 4,000' AGL
From Oct-20 @ 09:00 - Oct-20 @ 14:00
Wind Visibility
290° at 11 knots Greater than 6 miles
Clouds
  • Scattered at 4,000' AGL
From Oct-20 @ 14:00 - Oct-20 @ 18:00
Wind Visibility
300° at 12 knots
 Gusting to 22 knots
Greater than 6 miles
Clouds
  • Broken at 3,500' AGL
From Oct-20 @ 18:00 - Oct-21 @ 00:00
Wind Visibility
320° at 17 knots
 Gusting to 27 knots
6 miles
Clouds
  • Overcast at 3,500' AGL
Conditions
  • Light Rain